| time (UTC) | temp C | wind direction | speed KPH | gust KPH | rain 1hr cm | rain 24hr cm | rain mn cm | humidity % | barometer mb |
| 20260507154805 | 18 | 40 | 4.8 | 0.0 | 0.00 | 0.00 | 0.00 | 78 | 1014.0 |
| 20260507153305 | 18 | 40 | 4.8 | 0.0 | 0.00 | 0.00 | 0.00 | 78 | 1014.0 |
| 20260507151805 | 18 | 40 | 4.8 | 0.0 | 0.00 | 0.00 | 0.00 | 73 | 1014.0 |
| 20260507150305 | 18 | 40 | 4.8 | 0.0 | 0.00 | 0.00 | 0.00 | 73 | 1014.0 |
| 20260507144805 | 18 | 30 | 8.0 | 0.0 | 0.00 | 0.00 | 0.00 | 73 | 1014.0 |
| 20260507143307 | 18 | 30 | 8.0 | 0.0 | 0.00 | 0.00 | 0.00 | 73 | 1014.0 |
| 20260507141805 | 17 | 70 | 8.0 | 0.0 | 0.00 | 0.00 | 0.00 | 78 | 1014.0 |
| 20260507140305 | 17 | 70 | 8.0 | 0.0 | 0.00 | 0.00 | 0.00 | 78 | 1014.0 |
| 20260507134805 | 17 | 90 | 8.0 | 0.0 | 0.00 | 0.00 | 0.00 | 83 | 1014.0 |
| 20260507133305 | 17 | 90 | 8.0 | 0.0 | 0.00 | 0.00 | 0.00 | 83 | 1014.0 |
| 20260507131805 | 17 | 80 | 9.7 | 0.0 | 0.00 | 0.00 | 0.00 | 78 | 1015.0 |
| 20260507130305 | 17 | 80 | 9.7 | 0.0 | 0.00 | 0.00 | 0.00 | 78 | 1015.0 |
| 20260507124805 | 17 | 70 | 9.7 | 0.0 | 0.00 | 0.00 | 0.00 | 83 | 1015.0 |
| 20260507123344 | 17 | 70 | 9.7 | 0.0 | 0.00 | 0.00 | 0.00 | 83 | 1015.0 |
| 20260507121805 | 17 | 100 | 9.7 | 0.0 | 0.00 | 0.00 | 0.00 | 88 | 1015.0 |
| 20260507120305 | 17 | 100 | 9.7 | 0.0 | 0.00 | 0.00 | 0.00 | 88 | 1015.0 |
| 20260507114805 | 17 | 150 | 8.0 | 0.0 | 0.00 | 0.00 | 0.00 | 88 | 1015.0 |
| 20260507113319 | 16 | 80 | 8.0 | 0.0 | 0.00 | 0.00 | 0.00 | 94 | 1015.0 |
| 20260507111805 | 16 | 80 | 8.0 | 0.0 | 0.00 | 0.00 | 0.00 | 94 | 1015.0 |
| 20260507110305 | 16 | 80 | 8.0 | 0.0 | 0.00 | 0.00 | 0.00 | 94 | 1015.0 |
| 20260507104804 | 17 | 110 | 9.7 | 0.0 | 0.00 | 0.00 | 0.00 | 83 | 1015.0 |
| 20260507103305 | 17 | 110 | 9.7 | 0.0 | 0.00 | 0.00 | 0.00 | 83 | 1015.0 |
| 20260507101805 | 16 | 180 | 8.0 | 0.0 | 0.00 | 0.00 | 0.00 | 94 | 1016.0 |
| 20260507100305 | 16 | 180 | 8.0 | 0.0 | 0.00 | 0.00 | 0.00 | 94 | 1016.0 |
| 20260507094805 | 16 | 190 | 11.3 | 0.0 | 0.00 | 0.00 | 0.00 | 94 | 1016.0 |
| 20260507093305 | 16 | 190 | 11.3 | 0.0 | 0.00 | 0.00 | 0.00 | 94 | 1016.0 |
| 20260507091806 | 16 | 200 | 8.0 | 0.0 | 0.00 | 0.00 | 0.00 | 100 | 1016.0 |
| 20260507090306 | 16 | 200 | 8.0 | 0.0 | 0.00 | 0.00 | 0.00 | 100 | 1016.0 |
| 20260507084805 | 16 | 260 | 8.0 | 0.0 | 0.00 | 0.00 | 0.00 | 100 | 1015.0 |
| 20260507083305 | 16 | 260 | 8.0 | 0.0 | 0.00 | 0.00 | 0.00 | 100 | 1015.0 |
| 20260507081805 | 16 | 240 | 9.7 | 0.0 | 0.00 | 0.00 | 0.00 | 100 | 1015.0 |
| 20260507080306 | 16 | 240 | 9.7 | 0.0 | 0.00 | 0.00 | 0.00 | 100 | 1015.0 |
| 20260507074805 | 17 | 240 | 11.3 | 0.0 | 0.00 | 0.00 | 0.00 | 94 | 1015.0 |
| 20260507073305 | 17 | 240 | 11.3 | 0.0 | 0.00 | 0.00 | 0.00 | 94 | 1015.0 |
| 20260507071805 | 17 | 240 | 11.3 | 0.0 | 0.00 | 0.00 | 0.00 | 94 | 1015.0 |
| 20260507070304 | 17 | 240 | 11.3 | 0.0 | 0.00 | 0.00 | 0.00 | 94 | 1015.0 |
| 20260507064805 | 16 | 220 | 11.3 | 0.0 | 0.00 | 0.00 | 0.00 | 94 | 1015.0 |
| 20260507063305 | 16 | 220 | 11.3 | 0.0 | 0.00 | 0.00 | 0.00 | 94 | 1015.0 |
| 20260507061817 | 17 | 230 | 11.3 | 0.0 | 0.00 | 0.00 | 0.00 | 83 | 1014.0 |
| 20260507060305 | 17 | 230 | 11.3 | 0.0 | 0.00 | 0.00 | 0.00 | 83 | 1014.0 |
| 20260507054805 | 17 | 210 | 8.0 | 0.0 | 0.00 | 0.00 | 0.00 | 73 | 1014.0 |
| 20260507053312 | 17 | 210 | 8.0 | 0.0 | 0.00 | 0.00 | 0.00 | 73 | 1014.0 |
| 20260507051805 | 15 | 250 | 8.0 | 0.0 | 0.00 | 0.00 | 0.00 | 82 | 1013.0 |
| 20260507050305 | 15 | 250 | 8.0 | 0.0 | 0.00 | 0.00 | 0.00 | 82 | 1013.0 |
| 20260507044805 | 13 | 200 | 8.0 | 0.0 | 0.00 | 0.00 | 0.00 | 88 | 1013.0 |
| 20260507043305 | 13 | 200 | 8.0 | 0.0 | 0.00 | 0.00 | 0.00 | 88 | 1013.0 |
| 20260507041805 | 15 | 190 | 9.7 | 0.0 | 0.00 | 0.00 | 0.00 | 77 | 1013.0 |
| 20260507040305 | 15 | 190 | 9.7 | 0.0 | 0.00 | 0.00 | 0.00 | 77 | 1013.0 |
| 20260507034805 | 13 | 150 | 8.0 | 0.0 | 0.00 | 0.00 | 0.00 | 82 | 1012.0 |
| 20260507033304 | 13 | 150 | 8.0 | 0.0 | 0.00 | 0.00 | 0.00 | 82 | 1012.0 |
| 20260507031805 | 13 | 110 | 11.3 | 0.0 | 0.00 | 0.00 | 0.00 | 77 | 1012.0 |
| 20260507030305 | 13 | 110 | 11.3 | 0.0 | 0.00 | 0.00 | 0.00 | 77 | 1012.0 |
| 20260507024805 | 13 | 100 | 11.3 | 0.0 | 0.00 | 0.00 | 0.00 | 77 | 1012.0 |
| 20260507023304 | 13 | 100 | 11.3 | 0.0 | 0.00 | 0.00 | 0.00 | 77 | 1012.0 |
| 20260507021805 | 15 | 100 | 11.3 | 0.0 | 0.00 | 0.00 | 0.00 | 72 | 1011.0 |
| 20260507020305 | 15 | 100 | 11.3 | 0.0 | 0.00 | 0.00 | 0.00 | 72 | 1011.0 |
| 20260507014805 | 15 | 110 | 12.9 | 0.0 | 0.00 | 0.00 | 0.00 | 72 | 1011.0 |
| 20260507013304 | 15 | 110 | 12.9 | 0.0 | 0.00 | 0.00 | 0.00 | 72 | 1011.0 |
| 20260507011805 | 13 | 90 | 11.3 | 0.0 | 0.00 | 0.00 | 0.00 | 77 | 1011.0 |
| 20260507010305 | 13 | 90 | 11.3 | 0.0 | 0.00 | 0.00 | 0.00 | 77 | 1011.0 |
| 20260507004804 | 15 | 80 | 14.5 | 0.0 | 0.00 | 0.00 | 0.00 | 72 | 1011.0 |
| 20260507003305 | 15 | 80 | 14.5 | 0.0 | 0.00 | 0.00 | 0.00 | 72 | 1011.0 |
| 20260507001805 | 17 | 200 | 8.0 | 0.0 | 0.00 | 0.00 | 0.00 | 59 | 1011.0 |
| 20260507000306 | 17 | 200 | 8.0 | 0.0 | 0.00 | 0.00 | 0.00 | 59 | 1011.0 |
| 20260506234805 | 15 | 110 | 14.5 | 0.0 | 0.00 | 0.00 | 0.00 | 72 | 1011.0 |
| 20260506233305 | 15 | 110 | 14.5 | 0.0 | 0.00 | 0.00 | 0.00 | 72 | 1011.0 |
| 20260506231805 | 12 | 100 | 12.9 | 0.0 | 0.00 | 0.00 | 0.00 | 82 | 1011.0 |
| 20260506230305 | 12 | 100 | 12.9 | 0.0 | 0.00 | 0.00 | 0.00 | 82 | 1011.0 |
| 20260506224804 | 12 | 80 | 14.5 | 0.0 | 0.00 | 0.00 | 0.00 | 88 | 1011.0 |
| 20260506223305 | 12 | 80 | 14.5 | 0.0 | 0.00 | 0.00 | 0.00 | 88 | 1011.0 |
| 20260506221804 | 12 | 100 | 11.3 | 0.0 | 0.00 | 0.00 | 0.00 | 82 | 1011.0 |
| 20260506220304 | 12 | 100 | 11.3 | 0.0 | 0.00 | 0.00 | 0.00 | 82 | 1011.0 |
| 20260506214821 | 12 | 80 | 11.3 | 0.0 | 0.00 | 0.00 | 0.00 | 82 | 1011.0 |
| 20260506213305 | 12 | 80 | 11.3 | 0.0 | 0.00 | 0.00 | 0.00 | 82 | 1011.0 |
| 20260506211805 | 12 | 80 | 8.0 | 0.0 | 0.00 | 0.00 | 0.00 | 82 | 1011.0 |
| 20260506210304 | 12 | 80 | 8.0 | 0.0 | 0.00 | 0.00 | 0.00 | 82 | 1011.0 |
| 20260506204805 | 12 | 90 | 11.3 | 0.0 | 0.00 | 0.00 | 0.00 | 88 | 1011.0 |
| 20260506203305 | 12 | 90 | 11.3 | 0.0 | 0.00 | 0.00 | 0.00 | 88 | 1011.0 |
| 20260506201805 | 12 | 90 | 9.7 | 0.0 | 0.00 | 0.00 | 0.00 | 82 | 1011.0 |
| 20260506200305 | 12 | 90 | 9.7 | 0.0 | 0.00 | 0.00 | 0.00 | 82 | 1011.0 |
| 20260506194824 | 12 | 50 | 9.7 | 0.0 | 0.00 | 0.00 | 0.00 | 82 | 1011.0 |
| 20260506193328 | 12 | 50 | 9.7 | 0.0 | 0.00 | 0.00 | 0.00 | 82 | 1011.0 |
| 20260506191805 | 13 | 50 | 9.7 | 0.0 | 0.00 | 0.00 | 0.00 | 82 | 1011.0 |
| 20260506190305 | 13 | 50 | 9.7 | 0.0 | 0.00 | 0.00 | 0.00 | 82 | 1011.0 |
| 20260506184810 | 16 | 90 | 9.7 | 0.0 | 0.00 | 0.00 | 0.00 | 72 | 1011.0 |
| 20260506183305 | 16 | 90 | 9.7 | 0.0 | 0.00 | 0.00 | 0.00 | 72 | 1011.0 |
| 20260506181805 | 18 | 100 | 4.8 | 0.0 | 0.00 | 0.00 | 0.00 | 60 | 1010.0 |
| 20260506180305 | 18 | 100 | 4.8 | 0.0 | 0.00 | 0.00 | 0.00 | 60 | 1010.0 |
| 20260506174805 | 22 | 140 | 4.8 | 0.0 | 0.00 | 0.00 | 0.00 | 38 | 1010.0 |
| 20260506173305 | 22 | 140 | 4.8 | 0.0 | 0.00 | 0.00 | 0.00 | 38 | 1010.0 |
| 20260506171805 | 23 | 150 | 8.0 | 0.0 | 0.00 | 0.00 | 0.00 | 36 | 1010.0 |
| 20260506170304 | 23 | 150 | 8.0 | 0.0 | 0.00 | 0.00 | 0.00 | 36 | 1010.0 |
| 20260506164805 | 23 | 160 | 8.0 | 0.0 | 0.00 | 0.00 | 0.00 | 36 | 1010.0 |
| 20260506163305 | 23 | 160 | 8.0 | 0.0 | 0.00 | 0.00 | 0.00 | 36 | 1010.0 |
| 20260506161805 | 25 | 180 | 8.0 | 0.0 | 0.00 | 0.00 | 0.00 | 32 | 1011.0 |
| 20260506160305 | 25 | 180 | 8.0 | 0.0 | 0.00 | 0.00 | 0.00 | 32 | 1011.0 |